Tuesday, June 28, 2016, 9:13 AM EDT
Back to Local

KCXY, Harrisburg Capital City

Location: New Cumberland, PA, United States Lat: 40.217
Local Time: 9:13 AM EDT (13:13 GMT) Lon: -76.85
Time Zone: US/Eastern Elev: 347 ft

Show me the last for .
Show Decoded

2016-06-28 08:56 METAR KCXY 281256Z 10003KT 5SM HZ OVC010 23/20 A2995 RMK AO2 SLP139 T02280200 =
2016-06-28 07:56 METAR KCXY 281156Z 16003KT 8SM OVC011 23/19 A2994 RMK AO2 SLP136 70012 T02280194
                 10233 20222 51005 =
2016-06-28 06:56 METAR KCXY 281056Z 14005KT 8SM OVC011 22/19 A2994 RMK AO2 SLP136 T02220194 =
2016-06-28 05:56 METAR KCXY 280956Z AUTO 14004KT 8SM OVC012 22/19 A2993 RMK AO2 SLP133 T02220194
                 =
2016-06-28 04:56 METAR KCXY 280856Z AUTO 14004KT 8SM OVC014 22/19 A2992 RMK AO2 SLP131 T02220194
                 56008 =
2016-06-28 04:25 METAR KCXY 280825Z AUTO 13005KT 8SM OVC014 23/19 A2992 RMK AO2 T02280194 =
2016-06-28 03:56 METAR KCXY 280756Z AUTO 14003KT 10SM OVC016 22/19 A2993 RMK AO2 SLP132 T02220194
                 =
2016-06-28 03:42 METAR KCXY 280742Z AUTO 16003KT 10SM OVC015 22/19 A2992 RMK AO2 T02220194 =
2016-06-28 03:31 METAR KCXY 280731Z AUTO 16004KT 10SM OVC014 22/19 A2993 RMK AO2 T02220194 =
2016-06-28 02:56 METAR KCXY 280656Z AUTO 16004KT 10SM OVC015 23/19 A2993 RMK AO2 SLP134 T02280194
                 =
2016-06-28 01:56 METAR KCXY 280556Z AUTO VRB03KT 10SM BKN019 OVC027 23/19 A2995 RMK AO2 SLP139
                 T02330194 10261 20233 56007 =
2016-06-28 01:13 METAR KCXY 280513Z AUTO 13004KT 10SM BKN018 BKN033 23/19 A2995 RMK AO2 LTG DSNT
                 NE T02330194 =
2016-06-28 00:56 METAR KCXY 280456Z AUTO 10004KT 10SM SCT033 23/19 A2995 RMK AO2 SLP141 T02330194
                 402830183 =
2016-06-27 23:56 METAR KCXY 280356Z AUTO 13005KT 10SM SCT041 24/19 A2996 RMK AO2 LTG DSNT N
                 SLP143 T02390194 =
2016-06-27 22:56 METAR KCXY 280256Z AUTO VRB06KT 10SM OVC040 24/20 A2997 RMK AO2 LTG DSNT N
                 SLP146 T02390200 50004 =
2016-06-27 21:56 METAR KCXY 280156Z AUTO 14006KT 10SM BKN043 24/21 A2997 RMK AO2 LTG DSNT NW
                 SLP147 T02440206 =
2016-06-27 20:56 METAR KCXY 280056Z AUTO 13008KT 10SM FEW037 25/21 A2996 RMK AO2 SLP142 T02500206
                 =
2016-06-27 19:56 METAR KCXY 272356Z 18005KT 10SM CLR 26/21 A2996 RMK AO2 SLP143 60001 T02610206
                 10272 20250 55001 =
2016-06-27 18:56 METAR KCXY 272256Z 18006KT 10SM SCT080 27/21 A2996 RMK AO2 SLP142 T02670206 =
2016-06-27 17:56 METAR KCXY 272156Z 18006KT 10SM FEW025 SCT090 27/21 A2996 RMK AO2 SLP143
                 T02670206 =
2016-06-27 16:56 METAR KCXY 272056Z 00000KT 10SM BKN049 BKN060 BKN075 26/21 A2996 RMK AO2 SLP145
                 60001 T02610206 56017 =
2016-06-27 15:56 METAR KCXY 271956Z 20008KT 10SM BKN045 OVC080 26/20 A2997 RMK AO2 SLP149
                 T02610200 =
2016-06-27 14:56 METAR KCXY 271856Z 21006KT 10SM BKN048 27/21 A2999 RMK AO2 RAB18E54 SLP153 P0001
                 T02670206 =
2016-06-27 13:56 METAR KCXY 271756Z 22005KT 10SM OVC048 26/20 A3001 RMK AO2 RAE13 SLP162 P0000
                 60011 T02610200 10283 20217 58007 =
2016-06-27 13:04 METAR KCXY 271704Z 17004KT 7SM -RA FEW037 BKN047 OVC055 24/19 A3002 RMK AO2
                 P0000 T02440194 =
2016-06-27 12:56 METAR KCXY 271656Z 00000KT 2SM R08/6000VP6000FT +RA BKN046 OVC055 24/19 A3002
                 RMK AO2 VIS 3/4V5 RAB33 SLP166 P0011 T02440189 =
2016-06-27 12:52 METAR KCXY 271652Z 00000KT 1SM R08/4500VP6000FT +RA FEW034 BKN048 OVC055 24/19
                 A3003 RMK AO2 RAB33 P0010 =
2016-06-27 12:44 METAR KCXY 271644Z 22004KT 1 3/4SM R08/4500VP6000FT +RA FEW035 OVC048 26/18
                 A3003 RMK AO2 RAB33 P0006 T02560183 =
2016-06-27 11:56 METAR KCXY 271556Z 22007KT 10SM CLR 28/18 A3003 RMK AO2 SLP168 T02830178 =
2016-06-27 10:56 METAR KCXY 271456Z 19008KT 10SM OVC060 26/17 A3005 RMK AO2 SLP172 T02560167
                 58012 =
2016-06-27 09:56 METAR KCXY 271356Z 17006G15KT 10SM FEW055 25/17 A3006 RMK AO2 SLP176 T02500167 =

Support USWX by starting your Amazon purchase here.